sensor_id;sensor_type;location;lat;lon;timestamp;P1;durP1;ratioP1;P2;durP2;ratioP2
48285;SDS011;34102;47.716;10.296;2023-03-31T03:49:20;10.85;;;5.50;;
48285;SDS011;34102;47.716;10.296;2023-03-31T03:51:45;10.95;;;6.22;;
48285;SDS011;34102;47.716;10.296;2023-03-31T03:54:11;9.68;;;4.95;;
48285;SDS011;34102;47.716;10.296;2023-03-31T03:56:36;12.52;;;5.75;;
48285;SDS011;34102;47.716;10.296;2023-03-31T03:59:02;11.18;;;5.38;;
48285;SDS011;34102;47.716;10.296;2023-03-31T04:01:27;11.88;;;5.72;;
48285;SDS011;34102;47.716;10.296;2023-03-31T04:03:53;9.68;;;5.00;;
48285;SDS011;34102;47.716;10.296;2023-03-31T04:06:18;11.00;;;6.03;;
48285;SDS011;34102;47.716;10.296;2023-03-31T04:08:44;12.88;;;5.85;;
48285;SDS011;34102;47.716;10.296;2023-03-31T04:11:16;12.85;;;5.60;;
48285;SDS011;34102;47.716;10.296;2023-03-31T04:13:42;11.52;;;5.45;;
48285;SDS011;34102;47.716;10.296;2023-03-31T04:16:08;11.88;;;5.05;;
48285;SDS011;34102;47.716;10.296;2023-03-31T04:18:33;8.57;;;5.03;;
48285;SDS011;34102;47.716;10.296;2023-03-31T04:21:01;7.03;;;4.53;;
48285;SDS011;34102;47.716;10.296;2023-03-31T04:23:33;10.13;;;5.55;;
48285;SDS011;34102;47.716;10.296;2023-03-31T04:25:59;14.02;;;6.72;;
48285;SDS011;34102;47.716;10.296;2023-03-31T04:28:25;9.07;;;5.82;;
48285;SDS011;34102;47.716;10.296;2023-03-31T04:30:53;8.77;;;5.93;;
48285;SDS011;34102;47.716;10.296;2023-03-31T04:33:19;8.07;;;6.10;;
48285;SDS011;34102;47.716;10.296;2023-03-31T04:35:45;10.93;;;5.90;;
48285;SDS011;34102;47.716;10.296;2023-03-31T04:38:17;15.55;;;5.63;;
48285;SDS011;34102;47.716;10.296;2023-03-31T04:40:44;14.10;;;6.00;;
48285;SDS011;34102;47.716;10.296;2023-03-31T04:43:10;10.70;;;5.22;;
48285;SDS011;34102;47.716;10.296;2023-03-31T04:45:35;8.63;;;5.63;;
48285;SDS011;34102;47.716;10.296;2023-03-31T04:48:00;9.55;;;6.07;;
48285;SDS011;34102;47.716;10.296;2023-03-31T04:50:26;12.48;;;5.63;;
48285;SDS011;34102;47.716;10.296;2023-03-31T04:53:02;11.38;;;6.05;;
48285;SDS011;34102;47.716;10.296;2023-03-31T04:55:48;11.00;;;6.43;;
48285;SDS011;34102;47.716;10.296;2023-03-31T04:58:14;8.90;;;5.65;;
48285;SDS011;34102;47.716;10.296;2023-03-31T05:00:40;9.07;;;6.13;;
48285;SDS011;34102;47.716;10.296;2023-03-31T05:03:05;9.25;;;6.03;;
48285;SDS011;34102;47.716;10.296;2023-03-31T05:05:35;11.57;;;6.50;;
48285;SDS011;34102;47.716;10.296;2023-03-31T05:08:00;10.65;;;6.20;;
48285;SDS011;34102;47.716;10.296;2023-03-31T05:10:25;10.50;;;5.90;;
48285;SDS011;34102;47.716;10.296;2023-03-31T05:12:51;9.70;;;5.70;;
48285;SDS011;34102;47.716;10.296;2023-03-31T05:15:19;11.65;;;5.95;;
48285;SDS011;34102;47.716;10.296;2023-03-31T05:17:44;9.27;;;6.13;;
48285;SDS011;34102;47.716;10.296;2023-03-31T05:20:10;12.43;;;6.32;;
48285;SDS011;34102;47.716;10.296;2023-03-31T05:22:38;11.50;;;6.30;;
48285;SDS011;34102;47.716;10.296;2023-03-31T05:25:07;9.88;;;5.30;;
48285;SDS011;34102;47.716;10.296;2023-03-31T05:27:33;9.40;;;5.38;;
48285;SDS011;34102;47.716;10.296;2023-03-31T05:29:58;7.43;;;5.53;;
48285;SDS011;34102;47.716;10.296;2023-03-31T05:32:24;12.65;;;5.68;;
48285;SDS011;34102;47.716;10.296;2023-03-31T05:34:50;9.98;;;5.43;;
48285;SDS011;34102;47.716;10.296;2023-03-31T05:37:21;11.15;;;5.78;;
48285;SDS011;34102;47.716;10.296;2023-03-31T05:39:50;9.68;;;5.90;;
48285;SDS011;34102;47.716;10.296;2023-03-31T05:42:16;12.80;;;7.00;;
48285;SDS011;34102;47.716;10.296;2023-03-31T05:44:42;11.65;;;6.80;;
48285;SDS011;34102;47.716;10.296;2023-03-31T05:47:22;11.70;;;5.65;;
48285;SDS011;34102;47.716;10.296;2023-03-31T05:49:51;9.98;;;5.18;;
48285;SDS011;34102;47.716;10.296;2023-03-31T05:52:17;9.13;;;5.22;;
48285;SDS011;34102;47.716;10.296;2023-03-31T05:54:42;8.55;;;5.35;;
48285;SDS011;34102;47.716;10.296;2023-03-31T05:57:08;9.27;;;4.90;;
48285;SDS011;34102;47.716;10.296;2023-03-31T05:59:34;9.32;;;5.03;;
48285;SDS011;34102;47.716;10.296;2023-03-31T06:02:00;8.50;;;5.03;;
48285;SDS011;34102;47.716;10.296;2023-03-31T06:04:26;8.98;;;4.85;;
48285;SDS011;34102;47.716;10.296;2023-03-31T06:06:51;9.18;;;5.03;;
48285;SDS011;34102;47.716;10.296;2023-03-31T06:09:21;8.07;;;4.72;;
48285;SDS011;34102;47.716;10.296;2023-03-31T06:11:46;8.20;;;5.38;;
48285;SDS011;34102;47.716;10.296;2023-03-31T06:14:12;13.98;;;5.78;;
48285;SDS011;34102;47.716;10.296;2023-03-31T06:16:37;11.20;;;5.30;;
48285;SDS011;34102;47.716;10.296;2023-03-31T06:19:03;9.23;;;5.40;;
48285;SDS011;34102;47.716;10.296;2023-03-31T06:21:31;11.98;;;5.03;;
48285;SDS011;34102;47.716;10.296;2023-03-31T06:23:56;11.55;;;5.32;;
48285;SDS011;34102;47.716;10.296;2023-03-31T06:26:24;10.50;;;5.18;;
48285;SDS011;34102;47.716;10.296;2023-03-31T06:29:00;9.35;;;5.40;;
48285;SDS011;34102;47.716;10.296;2023-03-31T06:31:25;12.57;;;6.22;;
48285;SDS011;34102;47.716;10.296;2023-03-31T06:33:51;13.98;;;5.75;;
48285;SDS011;34102;47.716;10.296;2023-03-31T06:36:17;9.90;;;6.10;;
48285;SDS011;34102;47.716;10.296;2023-03-31T06:38:43;10.82;;;5.00;;
48285;SDS011;34102;47.716;10.296;2023-03-31T06:41:10;6.00;;;3.90;;
48285;SDS011;34102;47.716;10.296;2023-03-31T06:43:36;6.07;;;2.42;;
48285;SDS011;34102;47.716;10.296;2023-03-31T06:46:01;3.08;;;1.52;;
48285;SDS011;34102;47.716;10.296;2023-03-31T06:48:27;2.10;;;1.30;;
48285;SDS011;34102;47.716;10.296;2023-03-31T06:50:53;5.80;;;1.77;;
48285;SDS011;34102;47.716;10.296;2023-03-31T06:53:19;5.32;;;2.50;;
48285;SDS011;34102;47.716;10.296;2023-03-31T06:55:44;7.05;;;2.40;;
48285;SDS011;34102;47.716;10.296;2023-03-31T06:58:10;4.30;;;1.75;;
48285;SDS011;34102;47.716;10.296;2023-03-31T07:00:36;5.40;;;1.75;;
48285;SDS011;34102;47.716;10.296;2023-03-31T07:03:02;8.48;;;1.80;;
48285;SDS011;34102;47.716;10.296;2023-03-31T07:05:28;6.20;;;1.75;;
48285;SDS011;34102;47.716;10.296;2023-03-31T07:07:55;3.97;;;1.88;;
48285;SDS011;34102;47.716;10.296;2023-03-31T07:10:21;4.93;;;1.92;;
48285;SDS011;34102;47.716;10.296;2023-03-31T07:12:47;4.72;;;2.03;;
48285;SDS011;34102;47.716;10.296;2023-03-31T07:15:12;3.60;;;2.05;;
48285;SDS011;34102;47.716;10.296;2023-03-31T07:17:38;5.00;;;1.90;;
48285;SDS011;34102;47.716;10.296;2023-03-31T07:20:06;5.68;;;2.22;;
48285;SDS011;34102;47.716;10.296;2023-03-31T07:22:37;4.85;;;1.90;;
48285;SDS011;34102;47.716;10.296;2023-03-31T07:25:16;3.13;;;1.52;;
48285;SDS011;34102;47.716;10.296;2023-03-31T07:27:42;4.53;;;2.00;;
48285;SDS011;34102;47.716;10.296;2023-03-31T07:30:12;3.95;;;1.88;;
48285;SDS011;34102;47.716;10.296;2023-03-31T07:32:37;6.00;;;1.98;;
48285;SDS011;34102;47.716;10.296;2023-03-31T07:35:08;6.20;;;2.03;;
48285;SDS011;34102;47.716;10.296;2023-03-31T07:37:34;6.40;;;2.30;;
48285;SDS011;34102;47.716;10.296;2023-03-31T07:40:00;4.78;;;2.05;;
48285;SDS011;34102;47.716;10.296;2023-03-31T07:42:25;7.40;;;2.08;;
48285;SDS011;34102;47.716;10.296;2023-03-31T07:44:50;7.05;;;2.70;;
48285;SDS011;34102;47.716;10.296;2023-03-31T07:47:16;5.25;;;2.50;;
48285;SDS011;34102;47.716;10.296;2023-03-31T07:49:41;4.50;;;2.10;;
48285;SDS011;34102;47.716;10.296;2023-03-31T07:52:07;3.88;;;2.00;;
48285;SDS011;34102;47.716;10.296;2023-03-31T07:54:32;3.88;;;2.25;;
48285;SDS011;34102;47.716;10.296;2023-03-31T07:56:58;5.78;;;2.40;;
48285;SDS011;34102;47.716;10.296;2023-03-31T07:59:25;6.25;;;2.40;;
48285;SDS011;34102;47.716;10.296;2023-03-31T08:01:51;6.40;;;3.20;;
48285;SDS011;34102;47.716;10.296;2023-03-31T08:04:16;4.47;;;2.60;;
48285;SDS011;34102;47.716;10.296;2023-03-31T08:06:41;4.93;;;2.63;;
48285;SDS011;34102;47.716;10.296;2023-03-31T08:09:07;6.47;;;3.25;;
48285;SDS011;34102;47.716;10.296;2023-03-31T08:11:32;6.90;;;2.78;;
48285;SDS011;34102;47.716;10.296;2023-03-31T08:13:58;5.00;;;2.40;;
48285;SDS011;34102;47.716;10.296;2023-03-31T08:16:24;4.35;;;2.80;;
48285;SDS011;34102;47.716;10.296;2023-03-31T08:18:49;5.43;;;2.47;;
48285;SDS011;34102;47.716;10.296;2023-03-31T08:21:14;7.75;;;3.10;;
48285;SDS011;34102;47.716;10.296;2023-03-31T08:23:40;9.05;;;2.88;;
48285;SDS011;34102;47.716;10.296;2023-03-31T08:26:16;3.97;;;2.45;;
48285;SDS011;34102;47.716;10.296;2023-03-31T08:28:48;6.47;;;2.22;;
48285;SDS011;34102;47.716;10.296;2023-03-31T08:31:13;6.53;;;2.72;;
48285;SDS011;34102;47.716;10.296;2023-03-31T08:33:45;4.63;;;2.20;;
48285;SDS011;34102;47.716;10.296;2023-03-31T08:36:11;8.20;;;2.70;;
48285;SDS011;34102;47.716;10.296;2023-03-31T08:38:37;4.65;;;2.58;;
48285;SDS011;34102;47.716;10.296;2023-03-31T08:43:53;5.22;;;2.45;;
48285;SDS011;34102;47.716;10.296;2023-03-31T08:46:23;4.47;;;2.25;;
48285;SDS011;34102;47.716;10.296;2023-03-31T08:48:53;7.28;;;2.65;;
48285;SDS011;34102;47.716;10.296;2023-03-31T08:51:24;6.25;;;2.85;;
48285;SDS011;34102;47.716;10.296;2023-03-31T08:53:58;14.02;;;2.95;;
48285;SDS011;34102;47.716;10.296;2023-03-31T08:56:27;5.03;;;2.92;;
48285;SDS011;34102;47.716;10.296;2023-03-31T08:58:54;4.88;;;2.75;;
48285;SDS011;34102;47.716;10.296;2023-03-31T09:01:43;6.10;;;3.03;;
48285;SDS011;34102;47.716;10.296;2023-03-31T09:06:36;5.55;;;3.10;;
48285;SDS011;34102;47.716;10.296;2023-03-31T09:09:02;6.40;;;3.20;;
48285;SDS011;34102;47.716;10.296;2023-03-31T09:11:36;4.65;;;2.88;;
48285;SDS011;34102;47.716;10.296;2023-03-31T09:14:12;6.07;;;3.10;;
48285;SDS011;34102;47.716;10.296;2023-03-31T09:16:44;5.85;;;3.10;;
48285;SDS011;34102;47.716;10.296;2023-03-31T09:19:20;6.25;;;2.90;;
48285;SDS011;34102;47.716;10.296;2023-03-31T09:21:50;6.03;;;3.33;;
48285;SDS011;34102;47.716;10.296;2023-03-31T09:31:53;10.85;;;4.25;;
48285;SDS011;34102;47.716;10.296;2023-03-31T09:34:24;7.00;;;4.03;;
48285;SDS011;34102;47.716;10.296;2023-03-31T09:36:50;7.18;;;3.33;;
48285;SDS011;34102;47.716;10.296;2023-03-31T09:39:16;8.18;;;3.72;;
48285;SDS011;34102;47.716;10.296;2023-03-31T09:41:43;6.10;;;3.95;;
48285;SDS011;34102;47.716;10.296;2023-03-31T09:44:52;8.40;;;4.00;;
48285;SDS011;34102;47.716;10.296;2023-03-31T09:46:58;5.70;;;3.85;;
48285;SDS011;34102;47.716;10.296;2023-03-31T09:49:26;6.88;;;3.50;;
48285;SDS011;34102;47.716;10.296;2023-03-31T09:52:36;6.47;;;3.90;;
48285;SDS011;34102;47.716;10.296;2023-03-31T09:54:43;7.05;;;4.10;;
48285;SDS011;34102;47.716;10.296;2023-03-31T09:57:30;11.75;;;4.10;;
48285;SDS011;34102;47.716;10.296;2023-03-31T10:05:18;8.90;;;4.60;;
48285;SDS011;34102;47.716;10.296;2023-03-31T10:10:43;6.55;;;4.32;;
48285;SDS011;34102;47.716;10.296;2023-03-31T10:13:09;9.85;;;4.10;;
48285;SDS011;34102;47.716;10.296;2023-03-31T10:15:40;8.75;;;4.45;;
48285;SDS011;34102;47.716;10.296;2023-03-31T10:18:15;8.23;;;4.78;;
48285;SDS011;34102;47.716;10.296;2023-03-31T10:20:48;9.50;;;4.43;;
48285;SDS011;34102;47.716;10.296;2023-03-31T10:25:43;8.70;;;4.95;;
48285;SDS011;34102;47.716;10.296;2023-03-31T10:28:10;8.80;;;4.40;;
48285;SDS011;34102;47.716;10.296;2023-03-31T10:30:36;10.20;;;5.00;;
48285;SDS011;34102;47.716;10.296;2023-03-31T10:33:12;7.55;;;5.15;;
48285;SDS011;34102;47.716;10.296;2023-03-31T10:35:38;5.90;;;3.55;;
48285;SDS011;34102;47.716;10.296;2023-03-31T10:38:11;4.88;;;2.55;;
48285;SDS011;34102;47.716;10.296;2023-03-31T10:43:12;3.65;;;2.22;;
48285;SDS011;34102;47.716;10.296;2023-03-31T10:45:43;6.25;;;2.03;;
48285;SDS011;34102;47.716;10.296;2023-03-31T10:48:18;3.20;;;2.10;;
48285;SDS011;34102;47.716;10.296;2023-03-31T10:50:47;3.60;;;2.38;;
48285;SDS011;34102;47.716;10.296;2023-03-31T10:53:13;4.90;;;2.53;;
48285;SDS011;34102;47.716;10.296;2023-03-31T11:00:45;3.47;;;1.90;;
48285;SDS011;34102;47.716;10.296;2023-03-31T11:11:04;3.65;;;2.45;;
48285;SDS011;34102;47.716;10.296;2023-03-31T11:20:57;4.32;;;2.60;;
48285;SDS011;34102;47.716;10.296;2023-03-31T11:23:39;3.47;;;2.28;;
48285;SDS011;34102;47.716;10.296;2023-03-31T11:26:10;4.75;;;2.10;;
48285;SDS011;34102;47.716;10.296;2023-03-31T11:28:58;3.95;;;1.73;;
48285;SDS011;34102;47.716;10.296;2023-03-31T11:41:50;4.45;;;2.00;;
48285;SDS011;34102;47.716;10.296;2023-03-31T11:44:17;4.53;;;1.90;;
48285;SDS011;34102;47.716;10.296;2023-03-31T11:54:48;4.57;;;2.42;;
48285;SDS011;34102;47.716;10.296;2023-03-31T11:59:44;6.60;;;2.60;;
48285;SDS011;34102;47.716;10.296;2023-03-31T12:07:08;3.30;;;0.85;;
48285;SDS011;34102;47.716;10.296;2023-03-31T12:09:58;1.80;;;0.93;;
48285;SDS011;34102;47.716;10.296;2023-03-31T12:12:28;2.47;;;0.68;;
48285;SDS011;34102;47.716;10.296;2023-03-31T12:17:26;1.67;;;0.50;;
48285;SDS011;34102;47.716;10.296;2023-03-31T12:22:50;2.40;;;0.70;;
48285;SDS011;34102;47.716;10.296;2023-03-31T12:25:21;1.63;;;0.60;;
48285;SDS011;34102;47.716;10.296;2023-03-31T12:27:47;1.90;;;0.55;;
48285;SDS011;34102;47.716;10.296;2023-03-31T12:30:32;3.72;;;0.68;;
48285;SDS011;34102;47.716;10.296;2023-03-31T12:33:02;2.75;;;0.98;;
48285;SDS011;34102;47.716;10.296;2023-03-31T12:49:39;5.55;;;1.08;;
48285;SDS011;34102;47.716;10.296;2023-03-31T12:57:33;2.38;;;1.27;;
48285;SDS011;34102;47.716;10.296;2023-03-31T13:00:14;4.57;;;1.08;;
48285;SDS011;34102;47.716;10.296;2023-03-31T13:02:43;2.58;;;1.08;;
48285;SDS011;34102;47.716;10.296;2023-03-31T13:08:01;6.78;;;1.15;;
48285;SDS011;34102;47.716;10.296;2023-03-31T13:10:27;4.43;;;1.10;;
48285;SDS011;34102;47.716;10.296;2023-03-31T13:12:57;3.05;;;1.13;;
48285;SDS011;34102;47.716;10.296;2023-03-31T13:15:32;4.75;;;1.00;;
48285;SDS011;34102;47.716;10.296;2023-03-31T13:18:01;5.45;;;1.60;;
48285;SDS011;34102;47.716;10.296;2023-03-31T13:20:29;3.60;;;0.77;;
48285;SDS011;34102;47.716;10.296;2023-03-31T13:25:37;3.40;;;0.90;;
48285;SDS011;34102;47.716;10.296;2023-03-31T13:30:46;4.88;;;1.02;;
48285;SDS011;34102;47.716;10.296;2023-03-31T13:33:13;3.30;;;0.93;;
48285;SDS011;34102;47.716;10.296;2023-03-31T13:35:40;1.92;;;0.85;;
48285;SDS011;34102;47.716;10.296;2023-03-31T13:38:25;2.72;;;0.93;;
48285;SDS011;34102;47.716;10.296;2023-03-31T13:43:32;4.32;;;0.80;;
48285;SDS011;34102;47.716;10.296;2023-03-31T13:51:28;3.42;;;0.95;;
48285;SDS011;34102;47.716;10.296;2023-03-31T14:06:55;0.98;;;0.43;;
48285;SDS011;34102;47.716;10.296;2023-03-31T14:11:49;1.58;;;0.30;;
48285;SDS011;34102;47.716;10.296;2023-03-31T14:14:15;2.55;;;0.40;;
48285;SDS011;34102;47.716;10.296;2023-03-31T14:35:30;5.00;;;1.77;;
48285;SDS011;34102;47.716;10.296;2023-03-31T14:37:56;3.75;;;0.70;;
48285;SDS011;34102;47.716;10.296;2023-03-31T14:40:24;4.35;;;0.40;;
48285;SDS011;34102;47.716;10.296;2023-03-31T14:42:50;2.38;;;0.35;;
48285;SDS011;34102;47.716;10.296;2023-03-31T14:45:22;3.97;;;0.28;;
48285;SDS011;34102;47.716;10.296;2023-03-31T14:48:03;1.55;;;0.50;;
48285;SDS011;34102;47.716;10.296;2023-03-31T14:50:32;4.28;;;0.60;;
48285;SDS011;34102;47.716;10.296;2023-03-31T14:52:58;1.98;;;0.52;;
48285;SDS011;34102;47.716;10.296;2023-03-31T14:55:30;1.73;;;0.40;;
48285;SDS011;34102;47.716;10.296;2023-03-31T14:57:59;1.92;;;0.50;;
48285;SDS011;34102;47.716;10.296;2023-03-31T15:00:26;2.85;;;0.60;;
48285;SDS011;34102;47.716;10.296;2023-03-31T15:02:53;2.15;;;0.70;;
48285;SDS011;34102;47.716;10.296;2023-03-31T15:05:27;6.20;;;0.90;;
48285;SDS011;34102;47.716;10.296;2023-03-31T15:10:19;2.33;;;1.10;;
48285;SDS011;34102;47.716;10.296;2023-03-31T15:12:51;1.83;;;0.90;;
48285;SDS011;34102;47.716;10.296;2023-03-31T15:15:17;1.25;;;0.88;;
48285;SDS011;34102;47.716;10.296;2023-03-31T15:17:45;3.53;;;0.88;;
48285;SDS011;34102;47.716;10.296;2023-03-31T15:20:23;2.53;;;1.10;;
48285;SDS011;34102;47.716;10.296;2023-03-31T15:22:56;2.97;;;0.80;;
48285;SDS011;34102;47.716;10.296;2023-03-31T15:25:26;1.42;;;0.77;;
48285;SDS011;34102;47.716;10.296;2023-03-31T15:27:53;2.63;;;0.82;;
48285;SDS011;34102;47.716;10.296;2023-03-31T15:30:23;3.35;;;0.77;;
48285;SDS011;34102;47.716;10.296;2023-03-31T15:32:49;2.10;;;0.57;;
48285;SDS011;34102;47.716;10.296;2023-03-31T15:35:19;2.70;;;1.30;;
48285;SDS011;34102;47.716;10.296;2023-03-31T15:37:45;3.63;;;1.90;;
48285;SDS011;34102;47.716;10.296;2023-03-31T15:40:17;2.17;;;0.95;;
48285;SDS011;34102;47.716;10.296;2023-03-31T15:42:43;2.75;;;1.05;;
48285;SDS011;34102;47.716;10.296;2023-03-31T15:45:44;1.52;;;0.60;;
48285;SDS011;34102;47.716;10.296;2023-03-31T15:48:04;2.90;;;0.50;;
48285;SDS011;34102;47.716;10.296;2023-03-31T15:50:30;1.60;;;0.30;;
48285;SDS011;34102;47.716;10.296;2023-03-31T15:52:56;0.90;;;0.20;;
48285;SDS011;34102;47.716;10.296;2023-03-31T15:57:48;2.38;;;0.20;;
48285;SDS011;34102;47.716;10.296;2023-03-31T16:02:51;2.42;;;0.30;;
48285;SDS011;34102;47.716;10.296;2023-03-31T16:05:29;1.42;;;0.30;;
48285;SDS011;34102;47.716;10.296;2023-03-31T16:08:00;1.10;;;0.20;;
48285;SDS011;34102;47.716;10.296;2023-03-31T16:10:26;0.70;;;0.30;;
48285;SDS011;34102;47.716;10.296;2023-03-31T16:12:56;1.00;;;0.22;;
48285;SDS011;34102;47.716;10.296;2023-03-31T16:15:33;0.90;;;0.15;;
48285;SDS011;34102;47.716;10.296;2023-03-31T16:18:09;1.55;;;0.40;;
48285;SDS011;34102;47.716;10.296;2023-03-31T16:20:41;0.90;;;0.22;;
48285;SDS011;34102;47.716;10.296;2023-03-31T16:23:17;1.55;;;0.25;;
48285;SDS011;34102;47.716;10.296;2023-03-31T16:25:43;2.42;;;0.40;;
48285;SDS011;34102;47.716;10.296;2023-03-31T16:28:12;0.30;;;0.10;;
48285;SDS011;34102;47.716;10.296;2023-03-31T16:30:40;0.15;;;0.00;;
48285;SDS011;34102;47.716;10.296;2023-03-31T16:33:50;0.50;;;0.20;;
48285;SDS011;34102;47.716;10.296;2023-03-31T16:35:59;0.52;;;0.20;;
48285;SDS011;34102;47.716;10.296;2023-03-31T16:38:27;0.50;;;0.10;;
48285;SDS011;34102;47.716;10.296;2023-03-31T16:40:53;0.75;;;0.10;;
48285;SDS011;34102;47.716;10.296;2023-03-31T16:43:23;0.50;;;0.20;;
48285;SDS011;34102;47.716;10.296;2023-03-31T16:45:50;0.77;;;0.20;;
48285;SDS011;34102;47.716;10.296;2023-03-31T16:48:16;0.85;;;0.32;;
48285;SDS011;34102;47.716;10.296;2023-03-31T16:50:43;1.65;;;0.80;;
48285;SDS011;34102;47.716;10.296;2023-03-31T16:53:08;1.70;;;0.10;;
48285;SDS011;34102;47.716;10.296;2023-03-31T16:55:36;0.93;;;0.20;;
48285;SDS011;34102;47.716;10.296;2023-03-31T16:58:01;0.47;;;0.10;;
48285;SDS011;34102;47.716;10.296;2023-03-31T17:00:31;2.25;;;0.30;;
48285;SDS011;34102;47.716;10.296;2023-03-31T17:02:59;2.33;;;0.40;;
48285;SDS011;34102;47.716;10.296;2023-03-31T17:05:26;5.57;;;2.10;;
48285;SDS011;34102;47.716;10.296;2023-03-31T17:07:54;1.70;;;0.30;;
48285;SDS011;34102;47.716;10.296;2023-03-31T17:10:19;1.70;;;0.20;;
48285;SDS011;34102;47.716;10.296;2023-03-31T17:12:45;1.50;;;0.30;;
48285;SDS011;34102;47.716;10.296;2023-03-31T17:15:10;0.88;;;0.50;;
48285;SDS011;34102;47.716;10.296;2023-03-31T17:17:36;0.43;;;0.20;;
48285;SDS011;34102;47.716;10.296;2023-03-31T17:20:02;1.63;;;0.20;;
48285;SDS011;34102;47.716;10.296;2023-03-31T17:22:28;0.63;;;0.20;;
48285;SDS011;34102;47.716;10.296;2023-03-31T17:24:53;2.72;;;0.65;;
48285;SDS011;34102;47.716;10.296;2023-03-31T17:27:25;0.52;;;0.20;;
48285;SDS011;34102;47.716;10.296;2023-03-31T17:29:51;0.90;;;0.10;;
48285;SDS011;34102;47.716;10.296;2023-03-31T17:32:17;1.60;;;0.20;;
48285;SDS011;34102;47.716;10.296;2023-03-31T17:34:43;0.30;;;0.10;;
48285;SDS011;34102;47.716;10.296;2023-03-31T17:37:08;2.67;;;0.20;;
48285;SDS011;34102;47.716;10.296;2023-03-31T17:39:34;0.38;;;0.10;;
48285;SDS011;34102;47.716;10.296;2023-03-31T17:42:00;1.40;;;0.20;;
48285;SDS011;34102;47.716;10.296;2023-03-31T17:44:28;0.73;;;0.30;;
48285;SDS011;34102;47.716;10.296;2023-03-31T17:46:53;1.60;;;0.45;;
48285;SDS011;34102;47.716;10.296;2023-03-31T17:49:19;1.90;;;0.38;;
48285;SDS011;34102;47.716;10.296;2023-03-31T17:51:45;4.03;;;0.20;;
48285;SDS011;34102;47.716;10.296;2023-03-31T17:54:10;0.82;;;0.20;;
48285;SDS011;34102;47.716;10.296;2023-03-31T17:56:36;1.52;;;0.50;;
48285;SDS011;34102;47.716;10.296;2023-03-31T17:59:03;2.03;;;0.40;;
48285;SDS011;34102;47.716;10.296;2023-03-31T18:01:29;2.65;;;0.70;;
48285;SDS011;34102;47.716;10.296;2023-03-31T18:03:55;1.38;;;0.32;;
48285;SDS011;34102;47.716;10.296;2023-03-31T18:06:20;0.98;;;0.20;;
48285;SDS011;34102;47.716;10.296;2023-03-31T18:08:46;0.50;;;0.20;;
48285;SDS011;34102;47.716;10.296;2023-03-31T18:11:12;0.70;;;0.28;;
48285;SDS011;34102;47.716;10.296;2023-03-31T18:13:37;1.08;;;0.17;;
48285;SDS011;34102;47.716;10.296;2023-03-31T18:16:03;0.60;;;0.30;;
48285;SDS011;34102;47.716;10.296;2023-03-31T18:18:29;0.90;;;0.20;;
48285;SDS011;34102;47.716;10.296;2023-03-31T18:20:55;1.13;;;0.40;;
48285;SDS011;34102;47.716;10.296;2023-03-31T18:23:20;5.32;;;0.98;;
48285;SDS011;34102;47.716;10.296;2023-03-31T18:25:46;3.55;;;0.30;;
48285;SDS011;34102;47.716;10.296;2023-03-31T18:28:13;2.72;;;0.73;;
48285;SDS011;34102;47.716;10.296;2023-03-31T18:30:39;2.45;;;0.40;;
48285;SDS011;34102;47.716;10.296;2023-03-31T18:33:05;2.92;;;0.38;;
48285;SDS011;34102;47.716;10.296;2023-03-31T18:35:31;2.90;;;0.57;;
48285;SDS011;34102;47.716;10.296;2023-03-31T18:37:57;4.55;;;0.60;;
48285;SDS011;34102;47.716;10.296;2023-03-31T18:40:22;4.78;;;0.43;;
48285;SDS011;34102;47.716;10.296;2023-03-31T18:42:48;4.68;;;0.40;;
48285;SDS011;34102;47.716;10.296;2023-03-31T18:45:13;2.30;;;0.30;;
48285;SDS011;34102;47.716;10.296;2023-03-31T18:47:38;2.60;;;1.17;;
48285;SDS011;34102;47.716;10.296;2023-03-31T18:50:04;4.25;;;0.55;;
48285;SDS011;34102;47.716;10.296;2023-03-31T18:52:30;3.60;;;0.43;;
48285;SDS011;34102;47.716;10.296;2023-03-31T18:54:55;4.30;;;0.55;;
48285;SDS011;34102;47.716;10.296;2023-03-31T18:57:21;3.92;;;0.50;;
48285;SDS011;34102;47.716;10.296;2023-03-31T18:59:47;5.53;;;0.55;;
48285;SDS011;34102;47.716;10.296;2023-03-31T19:02:13;5.20;;;0.60;;
48285;SDS011;34102;47.716;10.296;2023-03-31T19:04:38;6.30;;;0.80;;
48285;SDS011;34102;47.716;10.296;2023-03-31T19:07:10;3.40;;;0.70;;
48285;SDS011;34102;47.716;10.296;2023-03-31T19:09:35;3.45;;;0.60;;
48285;SDS011;34102;47.716;10.296;2023-03-31T19:12:00;1.95;;;0.55;;
48285;SDS011;34102;47.716;10.296;2023-03-31T19:14:26;5.72;;;0.90;;
48285;SDS011;34102;47.716;10.296;2023-03-31T19:16:51;4.10;;;0.60;;
48285;SDS011;34102;47.716;10.296;2023-03-31T19:19:17;3.95;;;0.55;;
48285;SDS011;34102;47.716;10.296;2023-03-31T19:21:42;3.50;;;0.65;;
48285;SDS011;34102;47.716;10.296;2023-03-31T19:24:08;2.95;;;0.40;;
48285;SDS011;34102;47.716;10.296;2023-03-31T19:26:37;6.95;;;1.25;;
48285;SDS011;34102;47.716;10.296;2023-03-31T19:29:02;4.13;;;0.70;;
48285;SDS011;34102;47.716;10.296;2023-03-31T19:31:29;16.02;;;2.47;;
48285;SDS011;34102;47.716;10.296;2023-03-31T19:33:57;3.83;;;0.50;;
48285;SDS011;34102;47.716;10.296;2023-03-31T19:36:22;3.53;;;0.70;;
48285;SDS011;34102;47.716;10.296;2023-03-31T19:38:48;3.72;;;0.40;;
48285;SDS011;34102;47.716;10.296;2023-03-31T19:41:13;4.65;;;0.77;;
48285;SDS011;34102;47.716;10.296;2023-03-31T19:43:39;4.97;;;0.68;;
48285;SDS011;34102;47.716;10.296;2023-03-31T19:46:07;3.65;;;0.80;;
48285;SDS011;34102;47.716;10.296;2023-03-31T19:48:32;7.15;;;1.83;;
48285;SDS011;34102;47.716;10.296;2023-03-31T19:50:58;5.22;;;1.13;;
48285;SDS011;34102;47.716;10.296;2023-03-31T19:53:24;5.88;;;0.85;;
48285;SDS011;34102;47.716;10.296;2023-03-31T19:55:54;3.13;;;0.60;;
48285;SDS011;34102;47.716;10.296;2023-03-31T19:58:29;4.68;;;1.15;;
48285;SDS011;34102;47.716;10.296;2023-03-31T20:00:55;4.32;;;0.88;;
48285;SDS011;34102;47.716;10.296;2023-03-31T20:03:23;4.20;;;0.50;;
48285;SDS011;34102;47.716;10.296;2023-03-31T20:05:49;3.70;;;0.30;;
48285;SDS011;34102;47.716;10.296;2023-03-31T20:08:16;2.88;;;0.35;;
48285;SDS011;34102;47.716;10.296;2023-03-31T20:10:41;5.38;;;1.10;;
48285;SDS011;34102;47.716;10.296;2023-03-31T20:13:07;1.25;;;0.35;;
48285;SDS011;34102;47.716;10.296;2023-03-31T20:15:35;2.70;;;0.38;;
48285;SDS011;34102;47.716;10.296;2023-03-31T20:18:01;2.25;;;0.63;;
48285;SDS011;34102;47.716;10.296;2023-03-31T20:20:27;1.30;;;0.20;;
48285;SDS011;34102;47.716;10.296;2023-03-31T20:22:52;2.08;;;0.40;;
48285;SDS011;34102;47.716;10.296;2023-03-31T20:25:21;2.40;;;0.40;;
48285;SDS011;34102;47.716;10.296;2023-03-31T20:27:47;2.00;;;0.30;;
48285;SDS011;34102;47.716;10.296;2023-03-31T20:30:12;2.80;;;0.82;;
48285;SDS011;34102;47.716;10.296;2023-03-31T20:32:38;2.33;;;0.40;;
48285;SDS011;34102;47.716;10.296;2023-03-31T20:35:03;2.33;;;0.30;;
48285;SDS011;34102;47.716;10.296;2023-03-31T20:37:31;2.92;;;0.30;;
48285;SDS011;34102;47.716;10.296;2023-03-31T20:39:57;1.38;;;0.50;;
48285;SDS011;34102;47.716;10.296;2023-03-31T20:42:23;1.38;;;0.20;;
48285;SDS011;34102;47.716;10.296;2023-03-31T20:44:51;0.25;;;0.00;;
48285;SDS011;34102;47.716;10.296;2023-03-31T20:47:17;1.38;;;0.30;;
48285;SDS011;34102;47.716;10.296;2023-03-31T20:49:42;1.38;;;0.10;;
48285;SDS011;34102;47.716;10.296;2023-03-31T20:52:07;1.20;;;0.17;;
48285;SDS011;34102;47.716;10.296;2023-03-31T20:54:35;1.58;;;0.30;;
48285;SDS011;34102;47.716;10.296;2023-03-31T20:57:00;2.03;;;0.20;;
48285;SDS011;34102;47.716;10.296;2023-03-31T20:59:29;0.50;;;0.10;;
48285;SDS011;34102;47.716;10.296;2023-03-31T21:01:55;1.77;;;0.17;;